Moosonee, Canada
Current Conditions -  °F | °C
As of 10:17 AM on Sunday 21 Dec 2014 (Local Time) from CYMO Reporting Station
Overcast Overcast  
Wind Chill:   Ceiling: 200
Heat Index:   Visibility: 9mi
Dew Point: -2°   Wind: 3mph
Humidity: 85%   Direction: 80°E
Pressure: 30.25"   Gusts: NA
Location:  51.27°N, 80.64°W
Report Text: CYMO 211517Z AUTO 08003KT 9SM OVC002 M17/M19 A3025 RMK SLP244
Loading
Personal Weather Stations






























Interactive Weather Map New forecast layout! Learn more

10-Day Weather Forecast

Advertisements
Track Severe Weather on mobile